KMWA/MWA METAR and TAF weather

Enter ICAO airport designator
Station Type Date Time Source
KMWA METAR 2020/01/19 22:45 UTC NOAA

KMWA 192245Z 31011KT 20SM FEW080 M04/M12 A3048


Station Type Date Time Source
KMWA Decoded METAR 2020/01/19 22:45 UTC NOAA

Marion, Williamson County Regional Airport, IL, United States (KMWA) 37-45-01N 089-00-04W
Jan 19, 2020 - 05:45 PM EST / 2020.01.19 2245 UTC
Wind: from the NW (310 degrees) at 13 MPH (11 KT):0
Visibility: 20 mile(s):0
Sky conditions: mostly clear
Temperature: 24 F (-4 C)
Windchill: 12 F (-11 C):1
Dew Point: 10 F (-12 C)
Relative Humidity: 53%
Pressure (altimeter): 30.48 in. Hg (1032 hPa)
ob: KMWA 192245Z 31011KT 20SM FEW080 M04/M12 A3048
cycle: 23

Station Type Date Time Source
KMWA TAF UTC NOAA

Error!

Example: see airport list